Capewater — PBPQ — position and weather

sailwx.info

Track history (hours):
 
Tides and Currents Weather Stations Pressure Air Temp Water Temp Dewpoint Dewpoint Depression Visibility Wind Speed Wind Dir Waves Ship Positions

Capewater

Last reported at 2014-Nov-26 19:23 UTC. Time now 2014-Nov-26 20:26 UTC.
Position N 52°08' E 003°42'.

Length 100 m; draft 5.3 m.

Type: Tanker. MMSI: 246346000.

Date/timePositionNaut miles runAvg speedWind from/ knotsBaromVisibWave heightAir tempDewpointWater temp
2014-Nov-26 19:23N 52°08' E 003°42'0 0.0
2014-Nov-26 18:29N 52°08' E 003°42'0 0.0
2014-Nov-26 17:08N 52°08' E 003°42'0 0.0
2014-Nov-26 16:20N 52°08' E 003°42'2 2.8
2014-Nov-26 15:31N 52°09' E 003°39'7013.5
2014-Nov-26 10:20N 52°45' E 002°01'1215.2
2014-Nov-26 09:33N 52°50' E 001°43'1514.9
2014-Nov-26 08:34N 53°02' E 001°28'1414.1
2014-Nov-26 07:33N 53°14' E 001°15'3314.1
2014-Nov-26 05:13N 53°42' E 000°47'913.7
2014-Nov-26 04:32N 53°50' E 000°37'1313.2
2014-Nov-26 03:33N 54°01' E 000°26'1312.8
2014-Nov-26 02:33N 54°12' E 000°17'1212.2
2014-Nov-26 01:33N 54°23' E 000°06'1212.4
2014-Nov-26 00:33N 54°32' W 000°07'1211.6
2014-Nov-25 23:33N 54°39' W 000°23'1312.6
2014-Nov-25 22:33N 54°40' W 000°45'1313.0
2014-Nov-25 21:32N 54°39' W 001°08'4 0.6
2014-Nov-25 15:24N 54°36' W 001°11'0 0.0
2014-Nov-25 14:24N 54°36' W 001°11'0 0.0
2014-Nov-25 13:24N 54°36' W 001°11'0 0.0
2014-Nov-25 12:27N 54°36' W 001°11'0 0.0
2014-Nov-25 11:27N 54°36' W 001°11'0 0.0
2014-Nov-25 10:30N 54°36' W 001°11'0 0.0
2014-Nov-25 09:30N 54°36' W 001°11'0 0.0
2014-Nov-25 08:30N 54°36' W 001°11'2 0.3
2014-Nov-25 00:13N 54°38' W 001°09'711.1
2014-Nov-24 23:33N 54°39' W 000°57'1515.4
2014-Nov-24 22:34N 54°35' W 000°31'1515.5
2014-Nov-24 21:34N 54°23' W 000°14'1515.1
2014-Nov-24 20:34N 54°11' E 000°02'1414.0
2014-Nov-24 19:33N 54°01' E 000°19'1313.0
2014-Nov-24 18:33N 53°52' E 000°34'4212.5
2014-Nov-24 15:10N 53°17' E 001°13'915.2
2014-Nov-24 14:33N 53°08' E 001°20'1515.5
2014-Nov-24 13:33N 52°56' E 001°36'1515.3
2014-Nov-24 12:33N 52°47' E 001°56'1813.3
2014-Nov-24 11:13N 52°37' E 002°20'6113.1
2014-Nov-24 06:33N 52°04' E 003°44'1111.4
2014-Nov-24 05:34N 51°60' E 004°02'1211.9
2014-Nov-24 04:34N 51°54' E 004°18'1 0.9
2014-Nov-24 03:33N 51°53' E 004°18'0 0.0
2014-Nov-24 02:33N 51°53' E 004°18'0 0.0
2014-Nov-24 01:33N 51°53' E 004°18'0 0.0
2014-Nov-24 00:30N 51°53' E 004°18'0 0.0
2014-Nov-23 23:33N 51°53' E 004°18'0 0.0
2014-Nov-23 22:33N 51°53' E 004°18'0 0.0
2014-Nov-23 21:33N 51°53' E 004°18'0 0.0
2014-Nov-23 20:33N 51°53' E 004°18'0 0.0
2014-Nov-23 19:33N 51°53' E 004°18'0 0.0
2014-Nov-23 18:30N 51°53' E 004°18'0 0.0
2014-Nov-23 17:33N 51°53' E 004°18'0 0.0
2014-Nov-23 16:33N 51°53' E 004°18'0 0.0
2014-Nov-23 15:30N 51°53' E 004°18'0 0.0
2014-Nov-23 14:33N 51°53' E 004°18'0 0.0
2014-Nov-23 13:24N 51°53' E 004°18'0 0.0
2014-Nov-23 12:27N 51°53' E 004°18'0 0.0
2014-Nov-23 11:33N 51°53' E 004°18'0 0.0
2014-Nov-23 10:33N 51°53' E 004°18'0 0.0
2014-Nov-23 09:33N 51°53' E 004°18'0 0.0
2014-Nov-23 08:33N 51°53' E 004°18'0 0.0
2014-Nov-23 07:33N 51°53' E 004°18'7 3.3
2014-Nov-23 05:33N 51°57' E 004°10'1413.7
2014-Nov-23 04:33N 52°00' E 003°48'4 3.5
2014-Nov-23 03:31N 51°57' E 003°46'0 0.0
2014-Nov-23 02:22N 51°57' E 003°46'0 0.0
2014-Nov-23 01:25N 51°57' E 003°46'0 0.0
2014-Nov-23 00:28N 51°57' E 003°46'0 0.1
2014-Nov-22 23:31N 51°57' E 003°46'0 0.1
2014-Nov-22 22:31N 51°57' E 003°46'0 0.0
2014-Nov-22 21:19N 51°57' E 003°46'0 0.0
2014-Nov-22 20:25N 51°57' E 003°46'0 0.0
2014-Nov-22 19:16N 51°57' E 003°46'0 0.0
2014-Nov-22 18:31N 51°57' E 003°46'0 0.1
2014-Nov-22 17:25N 51°57' E 003°46'0 0.0
2014-Nov-22 16:31N 51°57' E 003°46'0 0.0
2014-Nov-22 15:31N 51°57' E 003°46'0 0.0
2014-Nov-22 14:22N 51°57' E 003°46'0 0.0
2014-Nov-22 13:28N 51°57' E 003°46'0 0.0
2014-Nov-22 12:31N 51°57' E 003°46'0 0.0
2014-Nov-22 11:28N 51°57' E 003°46'0 0.1
2014-Nov-22 10:31N 51°57' E 003°46'0 0.1
2014-Nov-22 09:31N 51°57' E 003°46'0 0.0
2014-Nov-22 08:22N 51°57' E 003°46'0 0.0
2014-Nov-22 07:25N 51°57' E 003°46'0 0.0
2014-Nov-22 06:31N 51°57' E 003°46'0 0.0
2014-Nov-22 05:22N 51°57' E 003°46'0 0.0
2014-Nov-22 04:28N 51°57' E 003°46'0 0.0
2014-Nov-22 03:28N 51°57' E 003°46'0 0.0
2014-Nov-22 02:31N 51°57' E 003°46'0 0.0
2014-Nov-22 01:31N 51°57' E 003°46'0 0.0
2014-Nov-22 00:31N 51°57' E 003°46'0 0.1
2014-Nov-21 23:28N 51°57' E 003°46'0 0.0
2014-Nov-21 22:25N 51°57' E 003°46'0 0.0
2014-Nov-21 21:31N 51°57' E 003°46'0 0.0
2014-Nov-21 20:31N 51°57' E 003°46'0 0.0
2014-Nov-21 19:31N 51°57' E 003°46'0 0.0
2014-Nov-21 18:25N 51°57' E 003°46'0 0.0
2014-Nov-21 17:31N 51°57' E 003°46'2 1.8
2014-Nov-21 16:33N 51°58' E 003°43'1313.4
2014-Nov-21 15:33N 51°54' E 003°22'9 9.1
2014-Nov-21 14:31N 51°45' E 003°19'0 0.0
2014-Nov-21 13:31N 51°45' E 003°19'0 0.0
2014-Nov-21 12:31N 51°45' E 003°19'0 0.0
2014-Nov-21 11:10N 51°45' E 003°19'0 0.1
2014-Nov-21 10:28N 51°45' E 003°19'0 0.0
2014-Nov-21 09:23N 51°45' E 003°19'0 0.0
2014-Nov-21 08:31N 51°45' E 003°19'0 0.0
2014-Nov-21 07:28N 51°45' E 003°19'0 0.0
2014-Nov-21 06:25N 51°45' E 003°19'0 0.0
2014-Nov-21 05:25N 51°45' E 003°19'0 0.0
2014-Nov-21 04:28N 51°45' E 003°19'0 0.0
2014-Nov-21 03:28N 51°45' E 003°19'0 0.0
2014-Nov-21 02:31N 51°45' E 003°19'0 0.0
2014-Nov-21 01:28N 51°45' E 003°19'0 0.0
2014-Nov-21 00:25N 51°45' E 003°19'0 0.0
2014-Nov-20 23:31N 51°45' E 003°19'0 0.1
2014-Nov-20 22:31N 51°45' E 003°19'0 0.1
2014-Nov-20 21:31N 51°45' E 003°19'0 0.0
2014-Nov-20 20:31N 51°45' E 003°19'0 0.0
2014-Nov-20 19:28N 51°45' E 003°19'0 0.0
2014-Nov-20 18:22N 51°45' E 003°19'0 0.0
2014-Nov-20 17:28N 51°45' E 003°19'0 0.0
2014-Nov-20 16:10N 51°45' E 003°19'0 0.0
2014-Nov-20 15:28N 51°45' E 003°19'0 0.1
2014-Nov-20 14:22N 51°45' E 003°19'0 0.0
2014-Nov-20 13:31N 51°45' E 003°19'0 0.0
2014-Nov-20 12:31N 51°45' E 003°19'0 0.0
2014-Nov-20 11:19N 51°45' E 003°19'0 0.1
2014-Nov-20 10:13N 51°45' E 003°19'0 0.0
2014-Nov-20 09:31N 51°45' E 003°19'0 0.0
2014-Nov-20 08:25N 51°45' E 003°19'0 0.0
2014-Nov-20 07:13N 51°45' E 003°19'0 0.0
2014-Nov-20 06:31N 51°45' E 003°19'0 0.0
2014-Nov-20 05:17N 51°45' E 003°19'0 0.0
2014-Nov-20 04:28N 51°45' E 003°19'0 0.0
2014-Nov-20 02:22N 51°45' E 003°19'0 0.0
2014-Nov-20 01:13N 51°45' E 003°19'0 0.0
2014-Nov-20 00:25N 51°45' E 003°19'0 0.0
2014-Nov-19 23:19N 51°45' E 003°19'0 0.1
2014-Nov-19 21:25N 51°45' E 003°19'0 0.0
2014-Nov-19 20:28N 51°45' E 003°19'0 0.0
2014-Nov-19 19:31N 51°45' E 003°19'0 0.0
2014-Nov-19 16:28N 51°45' E 003°19'0 0.0
2014-Nov-19 09:31N 51°45' E 003°19'1 1.2
2014-Nov-19 08:33N 51°44' E 003°18'1111.5
2014-Nov-19 07:33N 51°34' E 003°25'1110.8
2014-Nov-19 06:33N 51°26' E 003°37'1212.2
2014-Nov-19 05:34N 51°23' E 003°56'1010.5
2014-Nov-19 04:34N 51°24' E 004°13'4 4.1
2014-Nov-19 03:34N 51°21' E 004°17'1 0.7
2014-Nov-19 02:33N 51°20' E 004°18'3 3.2
2014-Nov-19 01:33N 51°17' E 004°20'2 2.0
2014-Nov-19 00:32N 51°16' E 004°22'0 0.0
2014-Nov-18 23:32N 51°16' E 004°22'0 0.0
2014-Nov-18 22:32N 51°16' E 004°22'0 0.0
2014-Nov-18 21:32N 51°16' E 004°22'0 0.0
2014-Nov-18 20:32N 51°16' E 004°22'0 0.0
2014-Nov-18 19:32N 51°16' E 004°22'0 0.0
2014-Nov-18 18:32N 51°16' E 004°22'0 0.0
2014-Nov-18 17:32N 51°16' E 004°22'0 0.0
2014-Nov-18 16:29N 51°16' E 004°22'0 0.0
2014-Nov-18 15:32N 51°16' E 004°22'0 0.0
2014-Nov-18 14:32N 51°16' E 004°22'0 0.0
2014-Nov-18 13:32N 51°16' E 004°22'0 0.0
2014-Nov-18 12:32N 51°16' E 004°22'0 0.0
2014-Nov-18 11:32N 51°16' E 004°22'0 0.0
2014-Nov-18 10:32N 51°16' E 004°22'0 0.0
2014-Nov-18 09:32N 51°16' E 004°22'0 0.0
2014-Nov-18 08:32N 51°16' E 004°22'0 0.0
2014-Nov-18 07:32N 51°16' E 004°22'0 0.0
2014-Nov-18 06:26N 51°16' E 004°22'0 0.0
2014-Nov-18 05:32N 51°16' E 004°22'0 0.0
2014-Nov-18 04:32N 51°16' E 004°22'0 0.0
2014-Nov-18 03:29N 51°16' E 004°22'0 0.0
2014-Nov-18 02:29N 51°16' E 004°22'0 0.0
2014-Nov-18 01:32N 51°16' E 004°22'0 0.0
2014-Nov-18 00:32N 51°16' E 004°22'0 0.0
2014-Nov-17 23:26N 51°16' E 004°22'0 0.0
2014-Nov-17 22:34N 51°16' E 004°22'5 4.9
2014-Nov-17 21:34N 51°20' E 004°18'1 1.0
2014-Nov-17 20:34N 51°21' E 004°17'0 0.3
2014-Nov-17 19:33N 51°21' E 004°16'5 4.5
2014-Nov-17 18:33N 51°24' E 004°11'8 8.3
2014-Nov-17 17:33N 51°25' E 003°58'10 9.7
2014-Nov-17 16:33N 51°25' E 003°42'9 9.3
2014-Nov-17 15:33N 51°29' E 003°29'1313.0
2014-Nov-17 14:33N 51°40' E 003°18'1311.2
2014-Nov-17 13:26N 51°53' E 003°18'11212.5
2014-Nov-17 04:27N 53°34' E 004°38'2412.4
2014-Nov-17 02:31N 53°57' E 004°51'1212.1
2014-Nov-17 01:33N 54°07' E 004°58'1211.9
2014-Nov-17 00:33N 54°17' E 005°10'  
Track history (hours):
 
Tides and Currents Weather Stations Pressure Air Temp Water Temp Dewpoint Dewpoint Depression Visibility Wind Speed Wind Dir Waves Ship Positions

Capewater

Last reported at 2014-Nov-26 19:23 UTC. Time now 2014-Nov-26 20:26 UTC.
Position N 52°08' E 003°42'.

Length 100 m; draft 5.3 m.

Type: Tanker. MMSI: 246346000.

Date/timePositionNaut miles runAvg speedWind from/ knotsBaromVisibWave heightAir tempDewpointWater temp
2014-Nov-26 19:23N 52°08' E 003°42'0 0.0
2014-Nov-26 18:29N 52°08' E 003°42'0 0.0
2014-Nov-26 17:08N 52°08' E 003°42'0 0.0
2014-Nov-26 16:20N 52°08' E 003°42'2 2.8
2014-Nov-26 15:31N 52°09' E 003°39'7013.5
2014-Nov-26 10:20N 52°45' E 002°01'1215.2
2014-Nov-26 09:33N 52°50' E 001°43'1514.9
2014-Nov-26 08:34N 53°02' E 001°28'1414.1
2014-Nov-26 07:33N 53°14' E 001°15'3314.1
2014-Nov-26 05:13N 53°42' E 000°47'913.7
2014-Nov-26 04:32N 53°50' E 000°37'1313.2
2014-Nov-26 03:33N 54°01' E 000°26'1312.8
2014-Nov-26 02:33N 54°12' E 000°17'1212.2
2014-Nov-26 01:33N 54°23' E 000°06'1212.4
2014-Nov-26 00:33N 54°32' W 000°07'1211.6
2014-Nov-25 23:33N 54°39' W 000°23'1312.6
2014-Nov-25 22:33N 54°40' W 000°45'1313.0
2014-Nov-25 21:32N 54°39' W 001°08'4 0.6
2014-Nov-25 15:24N 54°36' W 001°11'0 0.0
2014-Nov-25 14:24N 54°36' W 001°11'0 0.0
2014-Nov-25 13:24N 54°36' W 001°11'0 0.0
2014-Nov-25 12:27N 54°36' W 001°11'0 0.0
2014-Nov-25 11:27N 54°36' W 001°11'0 0.0
2014-Nov-25 10:30N 54°36' W 001°11'0 0.0
2014-Nov-25 09:30N 54°36' W 001°11'0 0.0
2014-Nov-25 08:30N 54°36' W 001°11'2 0.3
2014-Nov-25 00:13N 54°38' W 001°09'711.1
2014-Nov-24 23:33N 54°39' W 000°57'1515.4
2014-Nov-24 22:34N 54°35' W 000°31'1515.5
2014-Nov-24 21:34N 54°23' W 000°14'1515.1
2014-Nov-24 20:34N 54°11' E 000°02'1414.0
2014-Nov-24 19:33N 54°01' E 000°19'1313.0
2014-Nov-24 18:33N 53°52' E 000°34'4212.5
2014-Nov-24 15:10N 53°17' E 001°13'915.2
2014-Nov-24 14:33N 53°08' E 001°20'1515.5
2014-Nov-24 13:33N 52°56' E 001°36'1515.3
2014-Nov-24 12:33N 52°47' E 001°56'1813.3
2014-Nov-24 11:13N 52°37' E 002°20'6113.1
2014-Nov-24 06:33N 52°04' E 003°44'1111.4
2014-Nov-24 05:34N 51°60' E 004°02'1211.9
2014-Nov-24 04:34N 51°54' E 004°18'1 0.9
2014-Nov-24 03:33N 51°53' E 004°18'0 0.0
2014-Nov-24 02:33N 51°53' E 004°18'0 0.0
2014-Nov-24 01:33N 51°53' E 004°18'0 0.0
2014-Nov-24 00:30N 51°53' E 004°18'0 0.0
2014-Nov-23 23:33N 51°53' E 004°18'0 0.0
2014-Nov-23 22:33N 51°53' E 004°18'0 0.0
2014-Nov-23 21:33N 51°53' E 004°18'0 0.0
2014-Nov-23 20:33N 51°53' E 004°18'0 0.0
2014-Nov-23 19:33N 51°53' E 004°18'0 0.0
2014-Nov-23 18:30N 51°53' E 004°18'0 0.0
2014-Nov-23 17:33N 51°53' E 004°18'0 0.0
2014-Nov-23 16:33N 51°53' E 004°18'0 0.0
2014-Nov-23 15:30N 51°53' E 004°18'0 0.0
2014-Nov-23 14:33N 51°53' E 004°18'0 0.0
2014-Nov-23 13:24N 51°53' E 004°18'0 0.0
2014-Nov-23 12:27N 51°53' E 004°18'0 0.0
2014-Nov-23 11:33N 51°53' E 004°18'0 0.0
2014-Nov-23 10:33N 51°53' E 004°18'0 0.0
2014-Nov-23 09:33N 51°53' E 004°18'0 0.0
2014-Nov-23 08:33N 51°53' E 004°18'0 0.0
2014-Nov-23 07:33N 51°53' E 004°18'7 3.3
2014-Nov-23 05:33N 51°57' E 004°10'1413.7
2014-Nov-23 04:33N 52°00' E 003°48'4 3.5
2014-Nov-23 03:31N 51°57' E 003°46'0 0.0
2014-Nov-23 02:22N 51°57' E 003°46'0 0.0
2014-Nov-23 01:25N 51°57' E 003°46'0 0.0
2014-Nov-23 00:28N 51°57' E 003°46'0 0.1
2014-Nov-22 23:31N 51°57' E 003°46'0 0.1
2014-Nov-22 22:31N 51°57' E 003°46'0 0.0
2014-Nov-22 21:19N 51°57' E 003°46'0 0.0
2014-Nov-22 20:25N 51°57' E 003°46'0 0.0
2014-Nov-22 19:16N 51°57' E 003°46'0 0.0
2014-Nov-22 18:31N 51°57' E 003°46'0 0.1
2014-Nov-22 17:25N 51°57' E 003°46'0 0.0
2014-Nov-22 16:31N 51°57' E 003°46'0 0.0
2014-Nov-22 15:31N 51°57' E 003°46'0 0.0
2014-Nov-22 14:22N 51°57' E 003°46'0 0.0
2014-Nov-22 13:28N 51°57' E 003°46'0 0.0
2014-Nov-22 12:31N 51°57' E 003°46'0 0.0
2014-Nov-22 11:28N 51°57' E 003°46'0 0.1
2014-Nov-22 10:31N 51°57' E 003°46'0 0.1
2014-Nov-22 09:31N 51°57' E 003°46'0 0.0
2014-Nov-22 08:22N 51°57' E 003°46'0 0.0
2014-Nov-22 07:25N 51°57' E 003°46'0 0.0
2014-Nov-22 06:31N 51°57' E 003°46'0 0.0
2014-Nov-22 05:22N 51°57' E 003°46'0 0.0
2014-Nov-22 04:28N 51°57' E 003°46'0 0.0
2014-Nov-22 03:28N 51°57' E 003°46'0 0.0
2014-Nov-22 02:31N 51°57' E 003°46'0 0.0
2014-Nov-22 01:31N 51°57' E 003°46'0 0.0
2014-Nov-22 00:31N 51°57' E 003°46'0 0.1
2014-Nov-21 23:28N 51°57' E 003°46'0 0.0
2014-Nov-21 22:25N 51°57' E 003°46'0 0.0
2014-Nov-21 21:31N 51°57' E 003°46'0 0.0
2014-Nov-21 20:31N 51°57' E 003°46'0 0.0
2014-Nov-21 19:31N 51°57' E 003°46'0 0.0
2014-Nov-21 18:25N 51°57' E 003°46'0 0.0
2014-Nov-21 17:31N 51°57' E 003°46'2 1.8
2014-Nov-21 16:33N 51°58' E 003°43'1313.4
2014-Nov-21 15:33N 51°54' E 003°22'9 9.1
2014-Nov-21 14:31N 51°45' E 003°19'0 0.0
2014-Nov-21 13:31N 51°45' E 003°19'0 0.0
2014-Nov-21 12:31N 51°45' E 003°19'0 0.0
2014-Nov-21 11:10N 51°45' E 003°19'0 0.1
2014-Nov-21 10:28N 51°45' E 003°19'0 0.0
2014-Nov-21 09:23N 51°45' E 003°19'0 0.0
2014-Nov-21 08:31N 51°45' E 003°19'0 0.0
2014-Nov-21 07:28N 51°45' E 003°19'0 0.0
2014-Nov-21 06:25N 51°45' E 003°19'0 0.0
2014-Nov-21 05:25N 51°45' E 003°19'0 0.0
2014-Nov-21 04:28N 51°45' E 003°19'0 0.0
2014-Nov-21 03:28N 51°45' E 003°19'0 0.0
2014-Nov-21 02:31N 51°45' E 003°19'0 0.0
2014-Nov-21 01:28N 51°45' E 003°19'0 0.0
2014-Nov-21 00:25N 51°45' E 003°19'0 0.0
2014-Nov-20 23:31N 51°45' E 003°19'0 0.1
2014-Nov-20 22:31N 51°45' E 003°19'0 0.1
2014-Nov-20 21:31N 51°45' E 003°19'0 0.0
2014-Nov-20 20:31N 51°45' E 003°19'0 0.0
2014-Nov-20 19:28N 51°45' E 003°19'0 0.0
2014-Nov-20 18:22N 51°45' E 003°19'0 0.0
2014-Nov-20 17:28N 51°45' E 003°19'0 0.0
2014-Nov-20 16:10N 51°45' E 003°19'0 0.0
2014-Nov-20 15:28N 51°45' E 003°19'0 0.1
2014-Nov-20 14:22N 51°45' E 003°19'0 0.0
2014-Nov-20 13:31N 51°45' E 003°19'0 0.0
2014-Nov-20 12:31N 51°45' E 003°19'0 0.0
2014-Nov-20 11:19N 51°45' E 003°19'0 0.1
2014-Nov-20 10:13N 51°45' E 003°19'0 0.0
2014-Nov-20 09:31N 51°45' E 003°19'0 0.0
2014-Nov-20 08:25N 51°45' E 003°19'0 0.0
2014-Nov-20 07:13N 51°45' E 003°19'0 0.0
2014-Nov-20 06:31N 51°45' E 003°19'0 0.0
2014-Nov-20 05:17N 51°45' E 003°19'0 0.0
2014-Nov-20 04:28N 51°45' E 003°19'0 0.0
2014-Nov-20 02:22N 51°45' E 003°19'0 0.0
2014-Nov-20 01:13N 51°45' E 003°19'0 0.0
2014-Nov-20 00:25N 51°45' E 003°19'0 0.0
2014-Nov-19 23:19N 51°45' E 003°19'0 0.1
2014-Nov-19 21:25N 51°45' E 003°19'0 0.0
2014-Nov-19 20:28N 51°45' E 003°19'0 0.0
2014-Nov-19 19:31N 51°45' E 003°19'0 0.0
2014-Nov-19 16:28N 51°45' E 003°19'0 0.0
2014-Nov-19 09:31N 51°45' E 003°19'1 1.2
2014-Nov-19 08:33N 51°44' E 003°18'1111.5
2014-Nov-19 07:33N 51°34' E 003°25'1110.8
2014-Nov-19 06:33N 51°26' E 003°37'1212.2
2014-Nov-19 05:34N 51°23' E 003°56'1010.5
2014-Nov-19 04:34N 51°24' E 004°13'4 4.1
2014-Nov-19 03:34N 51°21' E 004°17'1 0.7
2014-Nov-19 02:33N 51°20' E 004°18'3 3.2
2014-Nov-19 01:33N 51°17' E 004°20'2 2.0
2014-Nov-19 00:32N 51°16' E 004°22'0 0.0
2014-Nov-18 23:32N 51°16' E 004°22'0 0.0
2014-Nov-18 22:32N 51°16' E 004°22'0 0.0
2014-Nov-18 21:32N 51°16' E 004°22'0 0.0
2014-Nov-18 20:32N 51°16' E 004°22'0 0.0
2014-Nov-18 19:32N 51°16' E 004°22'0 0.0
2014-Nov-18 18:32N 51°16' E 004°22'0 0.0
2014-Nov-18 17:32N 51°16' E 004°22'0 0.0
2014-Nov-18 16:29N 51°16' E 004°22'0 0.0
2014-Nov-18 15:32N 51°16' E 004°22'0 0.0
2014-Nov-18 14:32N 51°16' E 004°22'0 0.0
2014-Nov-18 13:32N 51°16' E 004°22'0 0.0
2014-Nov-18 12:32N 51°16' E 004°22'0 0.0
2014-Nov-18 11:32N 51°16' E 004°22'0 0.0
2014-Nov-18 10:32N 51°16' E 004°22'0 0.0
2014-Nov-18 09:32N 51°16' E 004°22'0 0.0
2014-Nov-18 08:32N 51°16' E 004°22'0 0.0
2014-Nov-18 07:32N 51°16' E 004°22'0 0.0
2014-Nov-18 06:26N 51°16' E 004°22'0 0.0
2014-Nov-18 05:32N 51°16' E 004°22'0 0.0
2014-Nov-18 04:32N 51°16' E 004°22'0 0.0
2014-Nov-18 03:29N 51°16' E 004°22'0 0.0
2014-Nov-18 02:29N 51°16' E 004°22'0 0.0
2014-Nov-18 01:32N 51°16' E 004°22'0 0.0
2014-Nov-18 00:32N 51°16' E 004°22'0 0.0
2014-Nov-17 23:26N 51°16' E 004°22'0 0.0
2014-Nov-17 22:34N 51°16' E 004°22'5 4.9
2014-Nov-17 21:34N 51°20' E 004°18'1 1.0
2014-Nov-17 20:34N 51°21' E 004°17'0 0.3
2014-Nov-17 19:33N 51°21' E 004°16'5 4.5
2014-Nov-17 18:33N 51°24' E 004°11'8 8.3
2014-Nov-17 17:33N 51°25' E 003°58'10 9.7
2014-Nov-17 16:33N 51°25' E 003°42'9 9.3
2014-Nov-17 15:33N 51°29' E 003°29'1313.0
2014-Nov-17 14:33N 51°40' E 003°18'1311.2
2014-Nov-17 13:26N 51°53' E 003°18'11212.5
2014-Nov-17 04:27N 53°34' E 004°38'2412.4
2014-Nov-17 02:31N 53°57' E 004°51'1212.1
2014-Nov-17 01:33N 54°07' E 004°58'1211.9
2014-Nov-17 00:33N 54°17' E 005°10'  

Dump ship's entire track history